Time;durP1;ratioP1;P1;durP2;ratioP2;P2;SDS_P1;SDS_P2;PMS_P1;PMS_P2;Temp;Humidity;BMP_temperature;BMP_pressure;BME280_temperature;BME280_humidity;BME280_pressure;Samples;Min_cycle;Max_cycle;Signal;HPM_P1;HPM_P2
2024/01/23 00:00:48;;;;;;;;;;;;;;;;;;5063332;28;19919;-81
2024/01/23 00:03:16;;;;;;;;;;;;;;;;;;5064196;28;19912;-81
2024/01/23 00:05:43;;;;;;;;;;;;;;;;;;5063116;28;19916;-81
2024/01/23 00:08:09;;;;;;;;;;;;;;;;;;5074247;28;19923;-82
2024/01/23 00:10:35;;;;;;;;;;;;;;;;;;5061651;28;19909;-81
2024/01/23 00:13:02;;;;;;;;;;;;;;;;;;5064651;28;19915;-81
2024/01/23 00:15:29;;;;;;;;;;;;;;;;;;5062466;28;19918;-81
2024/01/23 00:17:55;;;;;;;;;;;;;;;;;;5064218;28;19922;-81
2024/01/23 00:20:22;;;;;;;;;;;;;;;;;;5061300;28;19920;-82
2024/01/23 00:22:50;;;;;;;;;;;;;;;;;;5064777;28;19912;-82
2024/01/23 00:25:17;;;;;;;;;;;;;;;;;;5065222;28;19965;-82
2024/01/23 00:27:44;;;;;;;;;;;;;;;;;;5063016;28;19991;-82
2024/01/23 00:30:12;;;;;;;;;;;;;;;;;;5065822;28;20646;-81
2024/01/23 00:32:40;;;;;;;;;;;;;;;;;;5060773;28;20846;-83
2024/01/23 00:35:07;;;;;;;;;;;;;;;;;;5066582;28;19911;-80
2024/01/23 00:37:33;;;;;;;;;;;;;;;;;;5064506;28;19916;-80
2024/01/23 00:40:04;;;;;;;;;;;;;;;;;;5062661;28;19972;-80
2024/01/23 00:42:41;;;;;;;;;;;;;;;;;;5063227;28;19915;-81
2024/01/23 00:45:08;;;;;;;;;;;;;;;;;;5071782;28;20494;-82
2024/01/23 00:47:35;;;;;;;;;;;;;;;;;;5071726;28;19916;-81
2024/01/23 00:50:02;;;;;;;;;;;;;;;;;;5071959;28;19912;-81
2024/01/23 00:52:30;;;;;;;;;;;;;;;;;;5071222;28;19912;-80
2024/01/23 00:55:02;;;;;;;;;;;;;;;;;;5085311;28;19912;-81
2024/01/23 00:57:30;;;;;;;;;;;;;;;;;;5083014;28;19938;-81
2024/01/23 00:59:56;;;;;;;;;;;;;;;;;;5084868;28;20600;-81
2024/01/23 01:02:23;;;;;;;;;;;;;;;;;;5071779;28;19916;-80
2024/01/23 01:04:50;;;;;;;;;;;;;;;;;;5073135;28;19924;-80
2024/01/23 01:07:18;;;;;;;;;;;;;;;;;;5072384;28;19999;-80
2024/01/23 01:09:45;;;;;;;;;;;;;;;;;;5069434;28;20100;-81
2024/01/23 01:12:13;;;;;;;;;;;;;;;;;;5070554;28;19984;-81
2024/01/23 01:14:40;;;;;;;;;;;;;;;;;;5071188;28;19923;-81
2024/01/23 01:19:32;;;;;;;;;;;;;;;;;;5037828;28;19927;-81
2024/01/23 01:22:00;;;;;;;;;;;;;;;;;;5022056;28;19916;-81
2024/01/23 01:24:27;;;;;;;;;;;;;;;;;;5021399;28;19916;-81
2024/01/23 01:26:53;;;;;;;;;;;;;;;;;;5040810;28;19920;-81
2024/01/23 01:29:20;;;;;;;;;;;;;;;;;;5036430;28;19916;-80
2024/01/23 01:31:47;;;;;;;;;;;;;;;;;;5041323;28;19912;-81
2024/01/23 01:34:15;;;;;;;;;;;;;;;;;;5015400;28;20559;-80
2024/01/23 01:36:42;;;;;;;;;;;;;;;;;;5020286;28;19966;-81
2024/01/23 01:39:11;;;;;;;;;;;;;;;;;;5036958;28;19944;-80
2024/01/23 01:41:39;;;;;;;;;;;;;;;;;;5042161;28;20911;-80
2024/01/23 01:44:05;;;;;;;;;;;;;;;;;;5046294;28;19919;-82
2024/01/23 01:46:32;;;;;;;;;;;;;;;;;;5049460;28;19919;-81
2024/01/23 01:49:00;;;;;;;;;;;;;;;;;;5036570;28;19965;-84
2024/01/23 01:51:27;;;;;;;;;;;;;;;;;;5039673;28;19912;-81
2024/01/23 01:53:55;;;;;;;;;;;;;;;;;;5064344;28;19915;-82
2024/01/23 01:56:25;;;;;;;;;;;;;;;;;;5095314;28;19916;-82
2024/01/23 01:58:52;;;;;;;;;;;;;;;;;;5093973;28;19916;-82
2024/01/23 02:01:19;;;;;;;;;;;;;;;;;;5079879;28;20060;-82
2024/01/23 02:03:47;;;;;;;;;;;;;;;;;;5101049;28;19911;-83
2024/01/23 02:06:13;;;;;;;;;;;;;;;;;;5098149;28;19907;-82
2024/01/23 02:08:42;;;;;;;;;;;;;;;;;;5098933;28;19920;-82
2024/01/23 02:11:09;;;;;;;;;;;;;;;;;;5104230;28;19900;-82
2024/01/23 02:13:39;;;;;;;;;;;;;;;;;;5093517;28;19916;-83
2024/01/23 02:16:07;;;;;;;;;;;;;;;;;;5075774;28;20438;-82
2024/01/23 02:18:35;;;;;;;;;;;;;;;;;;5085145;28;19926;-83
2024/01/23 02:21:05;;;;;;;;;;;;;;;;;;5077028;28;20479;-82
2024/01/23 02:23:32;;;;;;;;;;;;;;;;;;5074615;28;19912;-81
2024/01/23 02:25:59;;;;;;;;;;;;;;;;;;5077401;28;19919;-81
2024/01/23 02:28:47;;;;;;;;;;;;;;;;;;5075152;28;19919;-81
2024/01/23 02:31:14;;;;;;;;;;;;;;;;;;5071011;28;19999;-82
2024/01/23 02:33:41;;;;;;;;;;;;;;;;;;5069745;28;20040;-82
2024/01/23 02:36:08;;;;;;;;;;;;;;;;;;5055829;28;20593;-82
2024/01/23 02:38:36;;;;;;;;;;;;;;;;;;5073418;28;19912;-82
2024/01/23 02:41:03;;;;;;;;;;;;;;;;;;5070222;28;19912;-82
2024/01/23 02:43:30;;;;;;;;;;;;;;;;;;5053088;28;19912;-81
2024/01/23 02:45:58;;;;;;;;;;;;;;;;;;5070317;28;19912;-82
2024/01/23 02:48:25;;;;;;;;;;;;;;;;;;5064929;28;20039;-80
2024/01/23 02:50:52;;;;;;;;;;;;;;;;;;5070608;28;19911;-81
2024/01/23 02:53:19;;;;;;;;;;;;;;;;;;5069678;28;19912;-79
2024/01/23 02:55:45;;;;;;;;;;;;;;;;;;5053764;28;19919;-82
2024/01/23 02:58:11;;;;;;;;;;;;;;;;;;5069600;28;19984;-82
2024/01/23 03:00:40;;;;;;;;;;;;;;;;;;5049639;28;23574;-81
2024/01/23 03:03:08;;;;;;;;;;;;;;;;;;5070052;28;19982;-80
2024/01/23 03:05:35;;;;;;;;;;;;;;;;;;5067986;28;20433;-81
2024/01/23 03:08:01;;;;;;;;;;;;;;;;;;5072863;28;19916;-81
2024/01/23 03:10:29;;;;;;;;;;;;;;;;;;5065895;28;19924;-81
2024/01/23 03:12:56;;;;;;;;;;;;;;;;;;5055236;28;20122;-81
2024/01/23 03:15:24;;;;;;;;;;;;;;;;;;5066340;28;20039;-81
2024/01/23 03:17:51;;;;;;;;;;;;;;;;;;5050548;28;20008;-82
2024/01/23 03:20:17;;;;;;;;;;;;;;;;;;5053601;28;19912;-82
2024/01/23 03:22:44;;;;;;;;;;;;;;;;;;5069497;28;19912;-81
2024/01/23 03:25:12;;;;;;;;;;;;;;;;;;5070080;28;19955;-81
2024/01/23 03:27:39;;;;;;;;;;;;;;;;;;5064274;28;21129;-81
2024/01/23 03:30:06;;;;;;;;;;;;;;;;;;5074345;28;19974;-81
2024/01/23 03:32:33;;;;;;;;;;;;;;;;;;5071088;28;19936;-82
2024/01/23 03:35:00;;;;;;;;;;;;;;;;;;5069254;28;19912;-82
2024/01/23 03:37:28;;;;;;;;;;;;;;;;;;5066738;28;19908;-82
2024/01/23 03:39:58;;;;;;;;;;;;;;;;;;5065542;28;19912;-84
2024/01/23 03:42:28;;;;;;;;;;;;;;;;;;5071187;28;19912;-81
2024/01/23 03:44:55;;;;;;;;;;;;;;;;;;5068890;28;20022;-81
2024/01/23 03:47:21;;;;;;;;;;;;;;;;;;5057810;28;19912;-83
2024/01/23 03:49:48;;;;;;;;;;;;;;;;;;5073847;28;19923;-83
2024/01/23 03:52:14;;;;;;;;;;;;;;;;;;5070220;28;19934;-83
2024/01/23 03:54:41;;;;;;;;;;;;;;;;;;5064646;28;19923;-82
2024/01/23 03:57:08;;;;;;;;;;;;;;;;;;5070229;28;19912;-82
2024/01/23 03:59:35;;;;;;;;;;;;;;;;;;5068426;28;19966;-82
2024/01/23 04:02:06;;;;;;;;;;;;;;;;;;5070110;28;20643;-82
2024/01/23 04:04:32;;;;;;;;;;;;;;;;;;5049150;28;20516;-82
2024/01/23 04:06:59;;;;;;;;;;;;;;;;;;5070003;28;20049;-82
2024/01/23 04:09:27;;;;;;;;;;;;;;;;;;5064270;28;19954;-81
2024/01/23 04:11:54;;;;;;;;;;;;;;;;;;5065852;28;19916;-81
2024/01/23 04:14:21;;;;;;;;;;;;;;;;;;5049776;28;20018;-82
2024/01/23 04:16:48;;;;;;;;;;;;;;;;;;5054291;28;19943;-81
2024/01/23 04:19:16;;;;;;;;;;;;;;;;;;5053682;28;19922;-81
2024/01/23 04:21:43;;;;;;;;;;;;;;;;;;5067636;28;19912;-81
2024/01/23 04:24:10;;;;;;;;;;;;;;;;;;5051078;28;20608;-81
2024/01/23 04:26:38;;;;;;;;;;;;;;;;;;5061922;28;19996;-81
2024/01/23 04:29:08;;;;;;;;;;;;;;;;;;5070496;28;19959;-81
2024/01/23 04:31:35;;;;;;;;;;;;;;;;;;5068488;28;19941;-80
2024/01/23 04:34:01;;;;;;;;;;;;;;;;;;5067514;28;19941;-81
2024/01/23 04:36:27;;;;;;;;;;;;;;;;;;5069380;28;19911;-80
2024/01/23 04:38:53;;;;;;;;;;;;;;;;;;5053684;28;19933;-82
2024/01/23 04:41:22;;;;;;;;;;;;;;;;;;5063050;28;20567;-81
2024/01/23 04:43:58;;;;;;;;;;;;;;;;;;5064213;28;20026;-80
2024/01/23 04:46:25;;;;;;;;;;;;;;;;;;5050077;28;19912;-81
2024/01/23 04:48:53;;;;;;;;;;;;;;;;;;5051084;28;19969;-82
2024/01/23 04:51:18;;;;;;;;;;;;;;;;;;5047281;28;19920;-82
2024/01/23 04:53:47;;;;;;;;;;;;;;;;;;5047300;28;20611;-82
2024/01/23 04:56:15;;;;;;;;;;;;;;;;;;5064875;28;20038;-82
2024/01/23 04:58:42;;;;;;;;;;;;;;;;;;5065598;28;19916;-82
2024/01/23 05:01:09;;;;;;;;;;;;;;;;;;5051278;28;20055;-81
2024/01/23 05:03:37;;;;;;;;;;;;;;;;;;5065592;28;20442;-80
2024/01/23 05:06:04;;;;;;;;;;;;;;;;;;5066124;28;19920;-81
2024/01/23 05:08:31;;;;;;;;;;;;;;;;;;5063328;28;19916;-81
2024/01/23 05:10:59;;;;;;;;;;;;;;;;;;5047221;28;20433;-81
2024/01/23 05:13:26;;;;;;;;;;;;;;;;;;5045119;28;20412;-81
2024/01/23 05:15:52;;;;;;;;;;;;;;;;;;5048290;28;19950;-81
2024/01/23 05:18:19;;;;;;;;;;;;;;;;;;5046192;28;20022;-80
2024/01/23 05:20:46;;;;;;;;;;;;;;;;;;5049859;28;19919;-80
2024/01/23 05:23:13;;;;;;;;;;;;;;;;;;5045780;28;19912;-81
2024/01/23 05:25:42;;;;;;;;;;;;;;;;;;5045879;28;19921;-80
2024/01/23 05:28:10;;;;;;;;;;;;;;;;;;5046005;28;19981;-83
2024/01/23 05:30:37;;;;;;;;;;;;;;;;;;5041453;28;19913;-83
2024/01/23 05:33:07;;;;;;;;;;;;;;;;;;5048335;28;20162;-83
2024/01/23 05:35:35;;;;;;;;;;;;;;;;;;5047582;28;20030;-82
2024/01/23 05:38:03;;;;;;;;;;;;;;;;;;5050073;28;19920;-81
2024/01/23 05:40:39;;;;;;;;;;;;;;;;;;5043445;28;19922;-82
2024/01/23 05:43:06;;;;;;;;;;;;;;;;;;5048131;28;20369;-82
2024/01/23 05:45:33;;;;;;;;;;;;;;;;;;5046570;28;19951;-82
2024/01/23 05:48:00;;;;;;;;;;;;;;;;;;5037921;28;19973;-82
2024/01/23 05:50:29;;;;;;;;;;;;;;;;;;5047489;28;19912;-82
2024/01/23 05:53:05;;;;;;;;;;;;;;;;;;5048550;28;19917;-82
2024/01/23 05:55:32;;;;;;;;;;;;;;;;;;5043550;28;19908;-82
2024/01/23 05:58:00;;;;;;;;;;;;;;;;;;5046409;28;19912;-82
2024/01/23 06:00:27;;;;;;;;;;;;;;;;;;5045350;28;19912;-82
2024/01/23 06:02:54;;;;;;;;;;;;;;;;;;5048233;28;19908;-81
2024/01/23 06:05:22;;;;;;;;;;;;;;;;;;5043455;28;20002;-81
2024/01/23 06:07:50;;;;;;;;;;;;;;;;;;5047607;28;19920;-81
2024/01/23 06:10:16;;;;;;;;;;;;;;;;;;5050414;28;19923;-80
2024/01/23 06:12:44;;;;;;;;;;;;;;;;;;5053952;28;19916;-82
2024/01/23 06:15:09;;;;;;;;;;;;;;;;;;5053217;28;19912;-83
2024/01/23 06:17:37;;;;;;;;;;;;;;;;;;5047759;28;20592;-80
2024/01/23 06:20:04;;;;;;;;;;;;;;;;;;5068976;28;20808;-83
2024/01/23 06:22:30;;;;;;;;;;;;;;;;;;5050340;28;19998;-82
2024/01/23 06:24:57;;;;;;;;;;;;;;;;;;5051989;28;19915;-82
2024/01/23 06:27:23;;;;;;;;;;;;;;;;;;5048234;28;19916;-81
2024/01/23 06:29:49;;;;;;;;;;;;;;;;;;5054269;28;19915;-81
2024/01/23 06:32:15;;;;;;;;;;;;;;;;;;5054382;28;19912;-82
2024/01/23 06:34:42;;;;;;;;;;;;;;;;;;5071046;28;19912;-82
2024/01/23 06:37:09;;;;;;;;;;;;;;;;;;5055067;28;19912;-82
2024/01/23 06:39:37;;;;;;;;;;;;;;;;;;5069368;28;20006;-81
2024/01/23 06:42:04;;;;;;;;;;;;;;;;;;5055995;28;20414;-82
2024/01/23 06:44:32;;;;;;;;;;;;;;;;;;5071638;28;19912;-82
2024/01/23 06:46:59;;;;;;;;;;;;;;;;;;5053041;28;20748;-82
2024/01/23 06:49:26;;;;;;;;;;;;;;;;;;5068145;28;19923;-82
2024/01/23 06:51:52;;;;;;;;;;;;;;;;;;5069510;28;20423;-82
2024/01/23 06:54:19;;;;;;;;;;;;;;;;;;5069460;28;19922;-82
2024/01/23 06:56:49;;;;;;;;;;;;;;;;;;5070986;28;19972;-82
2024/01/23 06:59:19;;;;;;;;;;;;;;;;;;5074872;28;20010;-82
2024/01/23 07:01:46;;;;;;;;;;;;;;;;;;5053797;28;19912;-82
2024/01/23 07:04:13;;;;;;;;;;;;;;;;;;5053525;28;19911;-83
2024/01/23 07:06:41;;;;;;;;;;;;;;;;;;5049459;28;19916;-82
2024/01/23 07:09:08;;;;;;;;;;;;;;;;;;5056096;28;20465;-81
2024/01/23 07:11:35;;;;;;;;;;;;;;;;;;5053905;28;19946;-82
2024/01/23 07:14:01;;;;;;;;;;;;;;;;;;5070418;28;19938;-83
2024/01/23 07:16:28;;;;;;;;;;;;;;;;;;5070175;28;19924;-83
2024/01/23 07:18:56;;;;;;;;;;;;;;;;;;5055002;28;20406;-83
2024/01/23 07:21:23;;;;;;;;;;;;;;;;;;5068694;28;19973;-83
2024/01/23 07:23:50;;;;;;;;;;;;;;;;;;5070073;28;20781;-83
2024/01/23 07:26:17;;;;;;;;;;;;;;;;;;5053443;28;19993;-83
2024/01/23 07:28:43;;;;;;;;;;;;;;;;;;5070096;28;19928;-81
2024/01/23 07:31:11;;;;;;;;;;;;;;;;;;5053433;28;19920;-82
2024/01/23 07:33:38;;;;;;;;;;;;;;;;;;5068683;28;20002;-82
2024/01/23 07:36:05;;;;;;;;;;;;;;;;;;5052906;28;19912;-82
2024/01/23 07:38:32;;;;;;;;;;;;;;;;;;5049963;28;19968;-82
2024/01/23 07:41:00;;;;;;;;;;;;;;;;;;5054700;28;19908;-81
2024/01/23 07:43:27;;;;;;;;;;;;;;;;;;5050228;28;19912;-82
2024/01/23 07:45:54;;;;;;;;;;;;;;;;;;5068269;28;19909;-82
2024/01/23 07:48:21;;;;;;;;;;;;;;;;;;5068197;28;19924;-75
2024/01/23 07:50:49;;;;;;;;;;;;;;;;;;5050039;28;19913;-74
2024/01/23 07:53:16;;;;;;;;;;;;;;;;;;5051460;28;20435;-75
2024/01/23 07:55:43;;;;;;;;;;;;;;;;;;5068260;28;19919;-75
2024/01/23 07:58:14;;;;;;;;;;;;;;;;;;5063215;28;20404;-75
2024/01/23 08:00:44;;;;;;;;;;;;;;;;;;5067161;28;19916;-75
2024/01/23 08:03:10;;;;;;;;;;;;;;;;;;5051070;28;20411;-75
2024/01/23 08:05:37;;;;;;;;;;;;;;;;;;5052134;28;19915;-74
2024/01/23 08:08:05;;;;;;;;;;;;;;;;;;5049817;28;19927;-75
2024/01/23 08:10:34;;;;;;;;;;;;;;;;;;5048455;28;19912;-75
2024/01/23 08:13:02;;;;;;;;;;;;;;;;;;5070469;28;19920;-81
2024/01/23 08:15:30;;;;;;;;;;;;;;;;;;5060977;28;20445;-82
2024/01/23 08:17:57;;;;;;;;;;;;;;;;;;5071944;28;19935;-82
2024/01/23 08:20:23;;;;;;;;;;;;;;;;;;5068813;28;19918;-82
2024/01/23 08:22:51;;;;;;;;;;;;;;;;;;5055686;28;19911;-83
2024/01/23 08:25:18;;;;;;;;;;;;;;;;;;5067679;28;19912;-82
2024/01/23 08:27:48;;;;;;;;;;;;;;;;;;5065465;28;20256;-75
2024/01/23 08:30:35;;;;;;;;;;;;;;;;;;5068526;28;20476;-74
2024/01/23 08:33:03;;;;;;;;;;;;;;;;;;5051856;28;20971;-74
2024/01/23 08:35:30;;;;;;;;;;;;;;;;;;5070239;28;19979;-74
2024/01/23 08:37:57;;;;;;;;;;;;;;;;;;5066990;28;20463;-74
2024/01/23 08:40:23;;;;;;;;;;;;;;;;;;5050672;28;19916;-75
2024/01/23 08:42:51;;;;;;;;;;;;;;;;;;5069535;28;19919;-74
2024/01/23 08:45:18;;;;;;;;;;;;;;;;;;5051885;28;19954;-74
2024/01/23 08:47:45;;;;;;;;;;;;;;;;;;5054416;28;20002;-74
2024/01/23 08:50:13;;;;;;;;;;;;;;;;;;5065373;28;20755;-74
2024/01/23 08:52:41;;;;;;;;;;;;;;;;;;5067477;28;21085;-74
2024/01/23 08:55:09;;;;;;;;;;;;;;;;;;5068257;28;19912;-74
2024/01/23 08:57:37;;;;;;;;;;;;;;;;;;5049307;28;19916;-74
2024/01/23 09:00:05;;;;;;;;;;;;;;;;;;5061075;28;19912;-74
2024/01/23 09:02:52;;;;;;;;;;;;;;;;;;5068848;28;19919;-74
2024/01/23 09:05:19;;;;;;;;;;;;;;;;;;5066948;28;19998;-75
2024/01/23 09:07:46;;;;;;;;;;;;;;;;;;5066337;28;19919;-75
2024/01/23 09:10:13;;;;;;;;;;;;;;;;;;5052902;28;19911;-75
2024/01/23 09:12:40;;;;;;;;;;;;;;;;;;5045584;28;19920;-75
2024/01/23 09:15:09;;;;;;;;;;;;;;;;;;5049958;28;19939;-75
2024/01/23 09:17:37;;;;;;;;;;;;;;;;;;5046742;28;20281;-75
2024/01/23 09:20:06;;;;;;;;;;;;;;;;;;5050520;28;19965;-76
2024/01/23 09:22:33;;;;;;;;;;;;;;;;;;5049634;28;19916;-76
2024/01/23 09:25:10;;;;;;;;;;;;;;;;;;5049304;28;19935;-76
2024/01/23 09:27:37;;;;;;;;;;;;;;;;;;5048737;28;19912;-76
2024/01/23 09:30:04;;;;;;;;;;;;;;;;;;5051720;28;19912;-76
2024/01/23 09:32:31;;;;;;;;;;;;;;;;;;5049036;28;19919;-73
2024/01/23 09:34:59;;;;;;;;;;;;;;;;;;5047810;28;20006;-76
2024/01/23 09:37:25;;;;;;;;;;;;;;;;;;5047064;28;20380;-76
2024/01/23 09:39:53;;;;;;;;;;;;;;;;;;5048358;28;19970;-75
2024/01/23 09:42:20;;;;;;;;;;;;;;;;;;5048516;28;20446;-76
2024/01/23 09:44:46;;;;;;;;;;;;;;;;;;5044326;28;20025;-76
2024/01/23 09:47:13;;;;;;;;;;;;;;;;;;5047896;28;20026;-76
2024/01/23 09:49:40;;;;;;;;;;;;;;;;;;5047426;28;20049;-75
2024/01/23 09:52:08;;;;;;;;;;;;;;;;;;5049924;28;19966;-75
2024/01/23 09:54:35;;;;;;;;;;;;;;;;;;5045487;28;21631;-76
2024/01/23 09:57:03;;;;;;;;;;;;;;;;;;5048856;28;19912;-75
2024/01/23 09:59:30;;;;;;;;;;;;;;;;;;5045652;28;19954;-75
2024/01/23 10:01:57;;;;;;;;;;;;;;;;;;5049387;28;19923;-75
2024/01/23 10:04:24;;;;;;;;;;;;;;;;;;5054230;28;19920;-75
2024/01/23 10:06:51;;;;;;;;;;;;;;;;;;5053448;28;19912;-75
2024/01/23 10:09:18;;;;;;;;;;;;;;;;;;5050778;28;20467;-75
2024/01/23 10:11:45;;;;;;;;;;;;;;;;;;5065345;28;19915;-76
2024/01/23 10:14:12;;;;;;;;;;;;;;;;;;5054780;28;20357;-75
2024/01/23 10:16:40;;;;;;;;;;;;;;;;;;5054006;28;20017;-74
2024/01/23 10:19:07;;;;;;;;;;;;;;;;;;5068477;28;19911;-74
2024/01/23 10:21:35;;;;;;;;;;;;;;;;;;5054080;28;19918;-82
2024/01/23 10:24:02;;;;;;;;;;;;;;;;;;5052216;28;19916;-76
2024/01/23 10:26:29;;;;;;;;;;;;;;;;;;5050767;28;19919;-75
2024/01/23 10:28:56;;;;;;;;;;;;;;;;;;5053665;28;20482;-75
2024/01/23 10:31:24;;;;;;;;;;;;;;;;;;5053322;28;19959;-75
2024/01/23 10:33:51;;;;;;;;;;;;;;;;;;5071129;28;20486;-75
2024/01/23 10:36:18;;;;;;;;;;;;;;;;;;5053568;28;19912;-75
2024/01/23 10:38:49;;;;;;;;;;;;;;;;;;5067863;28;19916;-75
2024/01/23 10:41:15;;;;;;;;;;;;;;;;;;5073181;28;19912;-82
2024/01/23 10:43:43;;;;;;;;;;;;;;;;;;5053265;28;19912;-81
2024/01/23 10:46:09;;;;;;;;;;;;;;;;;;5070743;27;19919;-81
2024/01/23 10:48:35;;;;;;;;;;;;;;;;;;5055726;28;19916;-84
2024/01/23 10:51:01;;;;;;;;;;;;;;;;;;5060234;28;19958;-82
2024/01/23 10:53:27;;;;;;;;;;;;;;;;;;5056975;28;19951;-84
2024/01/23 10:55:53;;;;;;;;;;;;;;;;;;5057890;28;19927;-83
2024/01/23 10:58:20;;;;;;;;;;;;;;;;;;5056241;28;19916;-81
2024/01/23 11:00:48;;;;;;;;;;;;;;;;;;5076797;28;19919;-81
2024/01/23 11:03:15;;;;;;;;;;;;;;;;;;5077568;28;19912;-82
2024/01/23 11:05:42;;;;;;;;;;;;;;;;;;5076584;28;19912;-81
2024/01/23 11:08:09;;;;;;;;;;;;;;;;;;5075980;28;19989;-82
2024/01/23 11:10:37;;;;;;;;;;;;;;;;;;5070901;28;20023;-80
2024/01/23 11:13:04;;;;;;;;;;;;;;;;;;5075900;28;20317;-83
2024/01/23 11:15:31;;;;;;;;;;;;;;;;;;5055686;28;19919;-84
2024/01/23 11:17:59;;;;;;;;;;;;;;;;;;5077088;28;19977;-83
2024/01/23 11:20:25;;;;;;;;;;;;;;;;;;5075557;28;20014;-83
2024/01/23 11:22:52;;;;;;;;;;;;;;;;;;5057403;28;19912;-82
2024/01/23 11:25:19;;;;;;;;;;;;;;;;;;5056184;28;19916;-83
2024/01/23 11:27:47;;;;;;;;;;;;;;;;;;5071762;28;20371;-82
2024/01/23 11:30:14;;;;;;;;;;;;;;;;;;5075074;28;19916;-82
2024/01/23 11:32:41;;;;;;;;;;;;;;;;;;5075306;28;20356;-82
2024/01/23 11:35:12;;;;;;;;;;;;;;;;;;5061451;28;20371;-83
2024/01/23 11:37:41;;;;;;;;;;;;;;;;;;5070912;28;21304;-82
2024/01/23 11:40:17;;;;;;;;;;;;;;;;;;5076280;28;19919;-82
2024/01/23 11:42:43;;;;;;;;;;;;;;;;;;5073412;28;19908;-83
2024/01/23 11:45:09;;;;;;;;;;;;;;;;;;5057214;28;19919;-84
2024/01/23 11:47:37;;;;;;;;;;;;;;;;;;5073801;28;20574;-82
2024/01/23 11:50:03;;;;;;;;;;;;;;;;;;5054120;28;20367;-82
2024/01/23 11:52:30;;;;;;;;;;;;;;;;;;5053251;28;19928;-85
2024/01/23 11:54:57;;;;;;;;;;;;;;;;;;5057807;28;19912;-82
2024/01/23 11:57:24;;;;;;;;;;;;;;;;;;5060136;28;20772;-82
2024/01/23 11:59:52;;;;;;;;;;;;;;;;;;5064856;28;19916;-84
2024/01/23 12:02:18;;;;;;;;;;;;;;;;;;5074201;28;19895;-84
2024/01/23 12:04:46;;;;;;;;;;;;;;;;;;5097117;28;19916;-84
2024/01/23 12:07:14;;;;;;;;;;;;;;;;;;5076337;28;19912;-84
2024/01/23 12:09:41;;;;;;;;;;;;;;;;;;5088147;28;19926;-83
2024/01/23 12:12:09;;;;;;;;;;;;;;;;;;5071985;28;19916;-82
2024/01/23 12:14:37;;;;;;;;;;;;;;;;;;5055587;28;19963;-83
2024/01/23 12:17:04;;;;;;;;;;;;;;;;;;5058084;28;19919;-83
2024/01/23 12:19:32;;;;;;;;;;;;;;;;;;5055315;28;20365;-82
2024/01/23 12:21:59;;;;;;;;;;;;;;;;;;5057595;28;20315;-84
2024/01/23 12:24:26;;;;;;;;;;;;;;;;;;5060800;28;20425;-83
2024/01/23 12:26:52;;;;;;;;;;;;;;;;;;5056087;28;20009;-83
2024/01/23 12:29:20;;;;;;;;;;;;;;;;;;5053503;28;20040;-82
2024/01/23 12:31:46;;;;;;;;;;;;;;;;;;5055051;28;20061;-83
2024/01/23 12:34:13;;;;;;;;;;;;;;;;;;5053466;28;20011;-82
2024/01/23 12:36:40;;;;;;;;;;;;;;;;;;5051890;28;19916;-81
2024/01/23 12:39:07;;;;;;;;;;;;;;;;;;5051572;28;19943;-81
2024/01/23 12:41:34;;;;;;;;;;;;;;;;;;5048082;28;19913;-82
2024/01/23 12:44:02;;;;;;;;;;;;;;;;;;5054140;28;19912;-83
2024/01/23 12:46:28;;;;;;;;;;;;;;;;;;5047243;28;19944;-83
2024/01/23 12:48:55;;;;;;;;;;;;;;;;;;5050278;28;19971;-80
2024/01/23 12:51:21;;;;;;;;;;;;;;;;;;5047402;28;19922;-82
2024/01/23 12:53:49;;;;;;;;;;;;;;;;;;5047452;28;19916;-81
2024/01/23 12:56:16;;;;;;;;;;;;;;;;;;5052422;28;19939;-81
2024/01/23 12:58:42;;;;;;;;;;;;;;;;;;5047696;28;20069;-80
2024/01/23 13:01:09;;;;;;;;;;;;;;;;;;5051009;28;20605;-81
2024/01/23 13:03:36;;;;;;;;;;;;;;;;;;5047650;28;19920;-81
2024/01/23 13:06:04;;;;;;;;;;;;;;;;;;5052982;28;19908;-81
2024/01/23 13:08:30;;;;;;;;;;;;;;;;;;5044884;28;19944;-81
2024/01/23 13:10:57;;;;;;;;;;;;;;;;;;5053909;28;20036;-81
2024/01/23 13:13:26;;;;;;;;;;;;;;;;;;5068746;28;19984;-85
2024/01/23 13:15:53;;;;;;;;;;;;;;;;;;5072491;28;19971;-82
2024/01/23 13:18:20;;;;;;;;;;;;;;;;;;5063435;28;19975;-82
2024/01/23 13:21:07;;;;;;;;;;;;;;;;;;5067841;28;20028;-82
2024/01/23 13:23:34;;;;;;;;;;;;;;;;;;5053206;28;19911;-82
2024/01/23 13:26:03;;;;;;;;;;;;;;;;;;5071712;28;19918;-83
2024/01/23 13:28:31;;;;;;;;;;;;;;;;;;5053044;28;20000;-81
2024/01/23 13:30:57;;;;;;;;;;;;;;;;;;5069893;28;20556;-80
2024/01/23 13:33:23;;;;;;;;;;;;;;;;;;5071128;28;20881;-80
2024/01/23 13:35:50;;;;;;;;;;;;;;;;;;5053657;28;19998;-80
2024/01/23 13:38:18;;;;;;;;;;;;;;;;;;5071317;28;19912;-80
2024/01/23 13:40:45;;;;;;;;;;;;;;;;;;5068110;28;19919;-82
2024/01/23 13:43:11;;;;;;;;;;;;;;;;;;5075288;28;20406;-82
2024/01/23 13:45:39;;;;;;;;;;;;;;;;;;5052638;28;19978;-82
2024/01/23 13:48:05;;;;;;;;;;;;;;;;;;5072499;28;20026;-82
2024/01/23 13:50:33;;;;;;;;;;;;;;;;;;5070818;28;20284;-82
2024/01/23 13:53:20;;;;;;;;;;;;;;;;;;5070035;28;20328;-84
2024/01/23 13:55:47;;;;;;;;;;;;;;;;;;5074776;28;19912;-85
2024/01/23 13:58:14;;;;;;;;;;;;;;;;;;5071177;28;20020;-84
2024/01/23 14:00:42;;;;;;;;;;;;;;;;;;5051594;28;20249;-81
2024/01/23 14:03:09;;;;;;;;;;;;;;;;;;5055006;28;19912;-81
2024/01/23 14:05:35;;;;;;;;;;;;;;;;;;5056025;28;20504;-81
2024/01/23 14:08:02;;;;;;;;;;;;;;;;;;5069007;28;19916;-82
2024/01/23 14:10:28;;;;;;;;;;;;;;;;;;5052562;28;19922;-82
2024/01/23 14:12:55;;;;;;;;;;;;;;;;;;5048439;28;20361;-83
2024/01/23 14:15:22;;;;;;;;;;;;;;;;;;5053386;28;19922;-82
2024/01/23 14:17:48;;;;;;;;;;;;;;;;;;5075436;28;20152;-83
2024/01/23 14:20:15;;;;;;;;;;;;;;;;;;5072193;28;19920;-81
2024/01/23 14:22:41;;;;;;;;;;;;;;;;;;5072934;28;20329;-82
2024/01/23 14:25:10;;;;;;;;;;;;;;;;;;5057787;28;19999;-83
2024/01/23 14:27:36;;;;;;;;;;;;;;;;;;5054080;28;19911;-82
2024/01/23 14:30:04;;;;;;;;;;;;;;;;;;5068692;28;19919;-83
2024/01/23 14:32:48;;;;;;;;;;;;;;;;;;5072567;28;19919;-82
2024/01/23 14:35:15;;;;;;;;;;;;;;;;;;5054845;28;19912;-82
2024/01/23 14:37:41;;;;;;;;;;;;;;;;;;5068400;28;19962;-83
2024/01/23 14:40:07;;;;;;;;;;;;;;;;;;5070409;28;20541;-83
2024/01/23 14:42:39;;;;;;;;;;;;;;;;;;5072453;28;19916;-83
2024/01/23 14:45:05;;;;;;;;;;;;;;;;;;5069241;28;19912;-82
2024/01/23 14:47:32;;;;;;;;;;;;;;;;;;5071908;28;19919;-82
2024/01/23 14:49:58;;;;;;;;;;;;;;;;;;5066069;28;19912;-82
2024/01/23 14:52:24;;;;;;;;;;;;;;;;;;5066598;28;20463;-82
2024/01/23 14:54:50;;;;;;;;;;;;;;;;;;5054667;28;19973;-82
2024/01/23 14:57:16;;;;;;;;;;;;;;;;;;5071106;28;20285;-83
2024/01/23 14:59:43;;;;;;;;;;;;;;;;;;5069763;28;19911;-83
2024/01/23 15:02:10;;;;;;;;;;;;;;;;;;5067300;28;19916;-83
2024/01/23 15:04:36;;;;;;;;;;;;;;;;;;5073603;28;20261;-83
2024/01/23 15:07:02;;;;;;;;;;;;;;;;;;5055660;28;19938;-83
2024/01/23 15:09:28;;;;;;;;;;;;;;;;;;5051510;28;19920;-83
2024/01/23 15:11:54;;;;;;;;;;;;;;;;;;5049546;28;19916;-82
2024/01/23 15:14:20;;;;;;;;;;;;;;;;;;5050690;28;19912;-82
2024/01/23 15:16:47;;;;;;;;;;;;;;;;;;5050699;28;19959;-85
2024/01/23 15:19:15;;;;;;;;;;;;;;;;;;5052272;28;19943;-85
2024/01/23 15:21:42;;;;;;;;;;;;;;;;;;5050943;28;19999;-83
2024/01/23 15:24:10;;;;;;;;;;;;;;;;;;5054161;28;19908;-85
2024/01/23 15:26:36;;;;;;;;;;;;;;;;;;5055295;28;20162;-85
2024/01/23 15:29:03;;;;;;;;;;;;;;;;;;5050887;28;19930;-83
2024/01/23 15:31:29;;;;;;;;;;;;;;;;;;5047743;28;20011;-83
2024/01/23 15:33:55;;;;;;;;;;;;;;;;;;5051297;28;19913;-83
2024/01/23 15:36:21;;;;;;;;;;;;;;;;;;5052375;28;19997;-85
2024/01/23 15:38:47;;;;;;;;;;;;;;;;;;5051695;28;19966;-85
2024/01/23 15:41:14;;;;;;;;;;;;;;;;;;5053113;28;20828;-82
2024/01/23 15:43:40;;;;;;;;;;;;;;;;;;5052359;28;19916;-83
2024/01/23 15:46:06;;;;;;;;;;;;;;;;;;5051345;28;19998;-85
2024/01/23 15:48:32;;;;;;;;;;;;;;;;;;5044352;28;19920;-85
2024/01/23 15:50:58;;;;;;;;;;;;;;;;;;5053114;28;19919;-84
2024/01/23 15:53:26;;;;;;;;;;;;;;;;;;5050611;28;20527;-84
2024/01/23 15:55:52;;;;;;;;;;;;;;;;;;5056579;28;20408;-84
2024/01/23 15:58:18;;;;;;;;;;;;;;;;;;5054053;28;19919;-75
2024/01/23 16:00:45;;;;;;;;;;;;;;;;;;5044361;28;20584;-76
2024/01/23 16:03:11;;;;;;;;;;;;;;;;;;5050344;28;20050;-80
2024/01/23 16:05:37;;;;;;;;;;;;;;;;;;5043441;28;19916;-83
2024/01/23 16:08:03;;;;;;;;;;;;;;;;;;5045387;28;20459;-84
2024/01/23 16:10:29;;;;;;;;;;;;;;;;;;5048537;28;19970;-83
2024/01/23 16:12:55;;;;;;;;;;;;;;;;;;5070414;27;20593;-83
2024/01/23 16:15:21;;;;;;;;;;;;;;;;;;5065715;28;19920;-84
2024/01/23 16:17:50;;;;;;;;;;;;;;;;;;5072184;28;19919;-84
2024/01/23 16:20:17;;;;;;;;;;;;;;;;;;5073350;28;20554;-83
2024/01/23 16:22:44;;;;;;;;;;;;;;;;;;5063009;28;20640;-84
2024/01/23 16:25:12;;;;;;;;;;;;;;;;;;5055580;28;20080;-83
2024/01/23 16:27:39;;;;;;;;;;;;;;;;;;5072846;28;19911;-83
2024/01/23 16:30:05;;;;;;;;;;;;;;;;;;5073170;28;20268;-82
2024/01/23 16:32:31;;;;;;;;;;;;;;;;;;5073688;28;20451;-82
2024/01/23 16:34:57;;;;;;;;;;;;;;;;;;5054616;28;19966;-82
2024/01/23 16:37:26;;;;;;;;;;;;;;;;;;5055736;28;20335;-83
2024/01/23 16:39:52;;;;;;;;;;;;;;;;;;5070399;28;19912;-82
2024/01/23 16:42:18;;;;;;;;;;;;;;;;;;5058623;28;19916;-83
2024/01/23 16:44:44;;;;;;;;;;;;;;;;;;5057076;28;19989;-83
2024/01/23 16:47:10;;;;;;;;;;;;;;;;;;5074953;28;19923;-82
2024/01/23 16:49:36;;;;;;;;;;;;;;;;;;5055295;28;19996;-83